Terminal Aerodrome Forecast
Issued by NWS Paducah, KY

Home | Current Version | Previous Version | Text Only | Print | Product List | Glossary Off
Versions: 1 2 3 4 5 6 7 8 9 10 11 12 13 14 15 16 17 18 19 20 21

372
FTUS43 KPAH 271129
TAFEVV
TAF
KEVV 271129Z 2712/2812 VRB03KT P6SM SCT050 BKN250
     FM271300 12005KT 6SM -SHRA BKN050
      TEMPO 2713/2715 3SM TSRA BKN035CB
     FM271700 17009KT P6SM SCT035 BKN100
     FM272000 19008KT P6SM VCTS BKN040CB
     FM280200 30003KT P6SM BKN035
     FM280800 32005KT 4SM BR OVC015=

USA.gov is the U.S. government's official web portal to all federal, state and local government web resources and services.